This is the latest recevied weather packets stored in our database for station/object K1FFK-1. If no packets are shown the sender has not sent any weather packets the latest 1 day(s).
| Time | Temp. | Humidity | Pressure | Rain* | Wind** | Luminosity | Snow |
|---|---|---|---|---|---|---|---|
| 1836274471 | 8.33° C | 80% | 1021.7 hPa | 0 mm | 1.79 m/s, 345° | - | - |
| 1836274321 | 7.78° C | 79% | 1021.7 hPa | 0 mm | 1.79 m/s, 347° | - | - |
| 1836273871 | 8.33° C | 81% | 1021.8 hPa | 0 mm | 1.34 m/s, 0° | - | - |
| 1778048494 | 11.67° C | 83% | 1013.4 hPa | 0 mm | 1.34 m/s, 201° | - | - |
| 1778047894 | 11.67° C | 82% | 1013.6 hPa | 0 mm | 1.34 m/s, 203° | - | - |
| 1778047294 | 11.67° C | 81% | 1013.7 hPa | 0 mm | 1.34 m/s, 208° | - | - |
| 1778046693 | 11.67° C | 81% | 1013.8 hPa | 0 mm | 1.34 m/s, 202° | - | - |
| 1778046093 | 11.67° C | 82% | 1013.9 hPa | 0 mm | 1.34 m/s, 196° | - | - |
| 1778045494 | 11.67° C | 83% | 1014 hPa | 0 mm | 0.89 m/s, 225° | - | - |
| 1778044894 | 11.67° C | 81% | 1014.2 hPa | 0 mm | 0 m/s | - | - |
| 1778044293 | 11.67° C | 79% | 1014.2 hPa | 0 mm | 1.34 m/s, 300° | - | - |
| 1778043693 | 12.22° C | 78% | 1014.3 hPa | 0 mm | 0.45 m/s, 187° | - | - |
| 1778043094 | 12.22° C | 77% | 1014.3 hPa | 0 mm | 0.45 m/s, 215° | - | - |
| 1778042496 | 12.22° C | 77% | 1014.2 hPa | 0 mm | 0.89 m/s, 201° | - | - |
| 1778041894 | 12.78° C | 76% | 1014.3 hPa | 0 mm | 0.89 m/s, 220° | - | - |
| 1778041294 | 13.33° C | 73% | 1014.4 hPa | 0 mm | 0.89 m/s, 187° | - | - |
| 1778040695 | 13.33° C | 70% | 1014.2 hPa | 0 mm | 0.89 m/s, 203° | - | - |
| 1778040093 | 13.89° C | 68% | 1014.2 hPa | 0 mm | 1.79 m/s, 198° | - | - |
| 1778039494 | 13.89° C | 68% | 1014 hPa | 0 mm | 2.68 m/s, 195° | - | - |
| 1778038895 | 13.89° C | 68% | 1014 hPa | 0 mm | 1.79 m/s, 201° | - | - |
| 1778038293 | 13.89° C | 69% | 1014.3 hPa | 0 mm | 2.24 m/s, 194° | - | - |
| 1778037694 | 13.33° C | 72% | 1014.3 hPa | 0 mm | 2.24 m/s, 187° | - | - |
| 1778037093 | 13.33° C | 72% | 1014.6 hPa | 0 mm | 1.79 m/s, 191° | - | - |
| 1778036493 | 13.33° C | 75% | 1014.5 hPa | 0 mm | 1.34 m/s, 199° | - | - |
| 1778035893 | 13.33° C | 76% | 1014.6 hPa | 0 mm | 2.24 m/s, 191° | - | - |
* Rain latest hour (hover to see other rain measurements)
** Current wind speed in m/s (hover to see current wind gust speed)